createdAt,value
2022-08-26T00:01:29.185Z,0.50
2022-08-26T00:03:57.516Z,0.00
2022-08-26T00:06:25.140Z,0.60
2022-08-26T00:08:52.432Z,1.08
2022-08-26T00:11:26.681Z,0.55
2022-08-26T00:13:57.544Z,0.90
2022-08-26T00:16:25.857Z,0.55
2022-08-26T00:18:53.373Z,0.30
2022-08-26T00:21:20.561Z,1.02
2022-08-26T00:23:47.967Z,0.47
2022-08-26T00:26:15.274Z,0.65
2022-08-26T00:28:42.606Z,0.80
2022-08-26T00:31:10.930Z,0.30
2022-08-26T00:33:38.877Z,0.20
2022-08-26T00:36:20.209Z,0.82
2022-08-26T00:38:53.860Z,0.65
2022-08-26T00:41:28.281Z,0.70
2022-08-26T00:44:05.552Z,1.00
2022-08-26T00:46:35.065Z,0.52
2022-08-26T00:49:20.451Z,0.47
2022-08-26T00:51:54.843Z,0.80
2022-08-26T00:54:24.468Z,0.60
2022-08-26T00:57:05.304Z,1.40
2022-08-26T00:59:42.324Z,0.55
2022-08-26T01:02:09.526Z,1.33
2022-08-26T01:04:55.549Z,1.00
2022-08-26T01:07:23.247Z,0.95
2022-08-26T01:09:50.589Z,0.85
2022-08-26T01:12:22.150Z,0.80
2022-08-26T01:14:49.434Z,1.20
2022-08-26T01:17:16.769Z,0.85
2022-08-26T01:19:45.696Z,0.90
2022-08-26T01:22:17.992Z,0.88
2022-08-26T01:24:45.181Z,0.70
2022-08-26T01:27:16.164Z,0.38
2022-08-26T01:29:43.778Z,0.73
2022-08-26T01:32:11.490Z,0.73
2022-08-26T01:34:38.999Z,0.45
2022-08-26T01:37:06.820Z,0.93
2022-08-26T01:39:36.570Z,0.30
2022-08-26T01:42:04.207Z,1.05
2022-08-26T01:44:43.258Z,1.92
2022-08-26T01:47:11.086Z,0.43
2022-08-26T01:49:38.289Z,1.13
2022-08-26T01:52:05.658Z,0.70
2022-08-26T01:54:33.500Z,1.55
2022-08-26T01:57:01.114Z,2.45
2022-08-26T01:59:29.122Z,1.05
2022-08-26T02:01:56.281Z,1.10
2022-08-26T02:04:26.594Z,1.13
2022-08-26T02:06:54.048Z,1.60
2022-08-26T02:09:21.435Z,0.93
2022-08-26T02:11:48.988Z,1.10
2022-08-26T02:14:23.723Z,0.57
2022-08-26T02:16:54.513Z,1.60
2022-08-26T02:19:22.738Z,1.70
2022-08-26T02:21:51.335Z,1.80
2022-08-26T02:24:20.442Z,1.83
2022-08-26T02:26:47.661Z,1.45
2022-08-26T02:29:22.222Z,1.75
2022-08-26T02:31:49.444Z,1.13
2022-08-26T02:34:19.669Z,1.67
2022-08-26T02:36:46.966Z,0.77
2022-08-26T02:39:21.958Z,1.73
2022-08-26T02:41:49.632Z,2.03
2022-08-26T02:44:17.686Z,2.03
2022-08-26T02:46:46.839Z,2.22
2022-08-26T02:49:14.826Z,1.65
2022-08-26T02:51:43.356Z,1.55
2022-08-26T02:54:10.545Z,2.15
2022-08-26T02:56:37.979Z,0.95
2022-08-26T02:59:05.367Z,3.00
2022-08-26T03:01:33.330Z,1.88
2022-08-26T03:04:00.963Z,1.65
2022-08-26T03:06:28.235Z,2.65
2022-08-26T03:08:55.962Z,2.90
2022-08-26T03:11:23.939Z,1.88
2022-08-26T03:13:53.815Z,2.78
2022-08-26T03:16:20.974Z,2.15
2022-08-26T03:18:52.314Z,2.95
2022-08-26T03:21:19.702Z,3.42
2022-08-26T03:23:47.005Z,3.90
2022-08-26T03:26:14.456Z,1.77
2022-08-26T03:29:01.723Z,3.70
2022-08-26T03:31:29.771Z,2.90
2022-08-26T03:33:59.640Z,2.08
2022-08-26T03:36:27.072Z,3.47
2022-08-26T03:38:54.381Z,3.13
2022-08-26T03:41:22.580Z,2.70
2022-08-26T03:43:51.001Z,3.08
2022-08-26T03:46:20.725Z,2.50
2022-08-26T03:48:48.399Z,2.97
2022-08-26T03:51:18.285Z,3.25
2022-08-26T03:53:46.604Z,3.63
2022-08-26T03:56:14.826Z,3.33
2022-08-26T03:58:44.229Z,4.43
2022-08-26T04:01:12.263Z,3.40
2022-08-26T04:04:00.097Z,2.85
2022-08-26T04:06:30.876Z,4.13
2022-08-26T04:15:00.946Z,2.83
2022-08-26T04:17:30.225Z,4.50
2022-08-26T04:19:57.426Z,3.88
2022-08-26T04:22:25.086Z,2.75
2022-08-26T04:24:52.495Z,4.72
2022-08-26T04:27:19.641Z,3.22
2022-08-26T04:29:47.686Z,4.15
2022-08-26T04:33:12.718Z,2.47
2022-08-26T04:35:40.589Z,3.50
2022-08-26T04:40:46.812Z,3.17
2022-08-26T04:43:15.275Z,2.72
2022-08-26T04:45:43.533Z,2.22
2022-08-26T04:48:11.203Z,2.65
2022-08-26T04:51:04.538Z,1.90
2022-08-26T04:56:05.289Z,3.45
2022-08-26T04:58:57.650Z,1.95
2022-08-26T05:01:24.866Z,2.75
2022-08-26T05:03:58.810Z,2.85
2022-08-26T05:07:13.959Z,3.08
2022-08-26T05:09:45.214Z,2.95
2022-08-26T05:12:12.393Z,3.72
2022-08-26T05:14:41.448Z,3.28
2022-08-26T05:17:09.170Z,3.38
2022-08-26T05:19:43.160Z,2.28
2022-08-26T05:22:10.354Z,3.00
2022-08-26T05:27:57.668Z,3.08
2022-08-26T05:30:24.838Z,1.75
2022-08-26T05:32:58.178Z,2.47
2022-08-26T05:35:28.951Z,3.20
2022-08-26T05:38:00.463Z,2.15
2022-08-26T05:40:28.016Z,2.08
2022-08-26T05:43:03.220Z,2.72
2022-08-26T05:45:33.645Z,2.25
2022-08-26T05:48:00.823Z,3.85
2022-08-26T05:50:27.943Z,3.28
2022-08-26T05:52:55.073Z,2.70
2022-08-26T05:55:22.577Z,2.72
2022-08-26T05:57:49.737Z,2.42
2022-08-26T06:00:16.990Z,2.53
2022-08-26T06:02:44.256Z,3.80
2022-08-26T06:05:15.838Z,2.95
2022-08-26T06:08:01.732Z,2.78
2022-08-26T06:10:32.553Z,2.70
2022-08-26T06:13:04.617Z,2.78
2022-08-26T06:15:39.470Z,2.63
2022-08-26T06:18:09.355Z,1.55
2022-08-26T06:20:37.361Z,1.60
2022-08-26T06:23:23.256Z,1.45
2022-08-26T06:25:50.551Z,3.90
2022-08-26T06:28:17.804Z,1.92
2022-08-26T06:30:45.331Z,2.50
2022-08-26T06:33:13.422Z,3.20
2022-08-26T06:35:41.395Z,1.77
2022-08-26T06:38:09.113Z,0.98
2022-08-26T06:40:43.188Z,1.77
2022-08-26T06:43:10.587Z,2.33
2022-08-26T06:45:38.397Z,1.25
2022-08-26T06:48:06.569Z,1.70
2022-08-26T06:50:34.798Z,3.03
2022-08-26T06:53:02.777Z,2.03
2022-08-26T06:55:29.975Z,3.58
2022-08-26T06:57:58.234Z,2.65
2022-08-26T07:00:25.872Z,2.53
2022-08-26T07:02:53.215Z,2.25
2022-08-26T07:08:05.638Z,2.78
2022-08-26T07:10:32.853Z,1.98
2022-08-26T07:13:00.656Z,1.70
2022-08-26T07:15:31.418Z,2.25
2022-08-26T07:17:58.887Z,2.40
2022-08-26T07:20:29.407Z,1.95
2022-08-26T07:22:58.774Z,1.20
2022-08-26T07:25:25.977Z,2.03
2022-08-26T07:27:54.288Z,1.63
2022-08-26T07:30:21.911Z,1.67
2022-08-26T07:32:50.051Z,1.83
2022-08-26T07:35:17.319Z,1.65
2022-08-26T07:37:46.140Z,2.17
2022-08-26T07:40:13.715Z,1.38
2022-08-26T07:42:43.497Z,2.75
2022-08-26T07:45:10.749Z,2.38
2022-08-26T07:47:37.877Z,0.93
2022-08-26T07:50:05.205Z,2.13
2022-08-26T07:52:33.426Z,2.10
2022-08-26T07:55:01.571Z,2.17
2022-08-26T07:57:29.154Z,1.67
2022-08-26T07:59:56.741Z,2.40
2022-08-26T08:02:24.179Z,1.00
2022-08-26T08:04:51.715Z,1.27
2022-08-26T08:07:19.022Z,1.30
2022-08-26T08:09:49.383Z,1.55
2022-08-26T08:12:16.990Z,1.45
2022-08-26T08:14:46.690Z,0.73
2022-08-26T08:17:15.727Z,1.38
2022-08-26T08:19:42.981Z,1.92
2022-08-26T08:22:17.091Z,1.52
2022-08-26T08:24:45.301Z,0.88
2022-08-26T08:27:18.138Z,1.73
2022-08-26T08:29:55.038Z,1.30
2022-08-26T08:32:22.622Z,2.33
2022-08-26T08:34:49.830Z,1.95
2022-08-26T08:37:17.279Z,1.15
2022-08-26T08:39:44.437Z,0.95
2022-08-26T08:42:27.704Z,2.05
2022-08-26T08:44:56.426Z,1.83
2022-08-26T08:47:30.266Z,0.93
2022-08-26T08:50:04.346Z,1.73
2022-08-26T08:52:32.895Z,2.35
2022-08-26T08:55:00.017Z,1.48
2022-08-26T08:57:28.971Z,2.40
2022-08-26T09:00:02.501Z,1.63
2022-08-26T09:02:29.698Z,1.60
2022-08-26T09:05:06.704Z,1.60
2022-08-26T09:07:37.517Z,1.13
2022-08-26T09:10:04.954Z,1.88
2022-08-26T09:12:32.706Z,1.52
2022-08-26T09:15:05.009Z,1.52
2022-08-26T09:17:42.489Z,1.42
2022-08-26T09:20:24.872Z,2.50
2022-08-26T09:22:52.094Z,1.17
2022-08-26T09:25:19.351Z,0.88
2022-08-26T09:27:50.918Z,1.20
2022-08-26T09:30:26.289Z,2.10
2022-08-26T09:33:01.811Z,1.45
2022-08-26T09:35:33.393Z,0.60
2022-08-26T09:38:00.829Z,0.88
2022-08-26T09:40:30.408Z,1.80
2022-08-26T09:43:03.165Z,1.00
2022-08-26T09:45:31.394Z,1.42
2022-08-26T09:48:01.235Z,1.23
2022-08-26T09:50:32.718Z,1.15
2022-08-26T09:53:06.130Z,1.42
2022-08-26T09:55:37.442Z,1.30
2022-08-26T09:58:08.662Z,0.40
2022-08-26T10:00:41.060Z,0.73
2022-08-26T10:03:10.846Z,0.90
2022-08-26T10:05:43.526Z,0.80
2022-08-26T10:08:23.337Z,0.82
2022-08-26T10:10:53.139Z,0.68
2022-08-26T10:13:37.040Z,1.55
2022-08-26T10:16:24.465Z,0.25
2022-08-26T10:19:07.573Z,0.70
2022-08-26T10:21:39.519Z,1.02
2022-08-26T10:24:07.457Z,1.52
2022-08-26T10:26:58.841Z,0.75
2022-08-26T10:29:30.342Z,2.38
2022-08-26T10:32:03.456Z,0.75
2022-08-26T10:34:32.398Z,1.08
2022-08-26T10:37:16.163Z,0.98
2022-08-26T10:39:58.771Z,0.82
2022-08-26T10:42:29.445Z,0.80
2022-08-26T10:44:58.647Z,1.48
2022-08-26T10:47:31.727Z,1.37
2022-08-26T10:50:08.595Z,1.27
2022-08-26T10:52:39.215Z,0.45
2022-08-26T10:55:09.405Z,0.43
2022-08-26T10:57:43.684Z,0.57
2022-08-26T11:00:34.735Z,0.47
2022-08-26T11:03:28.203Z,1.45
2022-08-26T11:06:14.346Z,0.55
2022-08-26T11:08:48.505Z,1.23
2022-08-26T11:11:34.942Z,2.47
2022-08-26T11:14:04.928Z,2.00
2022-08-26T11:16:51.999Z,0.52
2022-08-26T11:19:59.346Z,0.85
2022-08-26T11:22:29.758Z,0.38
2022-08-26T11:24:57.068Z,1.43
2022-08-26T11:27:24.932Z,0.68
2022-08-26T11:30:11.008Z,1.15
2022-08-26T11:32:39.147Z,1.52
2022-08-26T11:35:07.621Z,1.25
2022-08-26T11:37:41.617Z,1.33
2022-08-26T11:40:10.005Z,0.28
2022-08-26T11:42:40.883Z,0.20
2022-08-26T11:48:16.602Z,0.95
2022-08-26T11:50:53.067Z,0.70
2022-08-26T11:53:20.305Z,0.22
2022-08-26T11:55:50.876Z,0.68
2022-08-26T11:58:45.249Z,0.77
2022-08-26T12:01:13.195Z,0.35
2022-08-26T12:03:48.113Z,0.40
2022-08-26T12:06:15.491Z,0.57
2022-08-26T12:08:43.825Z,0.52
2022-08-26T12:11:13.437Z,1.08
2022-08-26T12:13:40.785Z,0.75
2022-08-26T12:16:09.985Z,0.60
2022-08-26T12:18:38.121Z,0.35
2022-08-26T12:21:12.983Z,0.50
2022-08-26T12:23:44.578Z,0.85
2022-08-26T12:26:22.621Z,0.65
2022-08-26T12:28:57.548Z,1.02
2022-08-26T12:31:31.294Z,0.30
2022-08-26T12:33:59.229Z,0.28
2022-08-26T12:36:28.509Z,0.68
2022-08-26T12:38:58.226Z,0.25
2022-08-26T12:41:39.331Z,0.40
2022-08-26T12:44:06.701Z,0.10
2022-08-26T12:46:33.822Z,0.52
2022-08-26T12:49:01.696Z,0.82
2022-08-26T12:51:29.802Z,0.75
2022-08-26T12:53:56.971Z,0.52
2022-08-26T12:56:35.493Z,0.60
2022-08-26T12:59:02.793Z,0.40
2022-08-26T13:01:37.857Z,0.95
2022-08-26T13:04:06.495Z,0.17
2022-08-26T13:06:34.871Z,0.35
2022-08-26T13:09:06.563Z,0.30
2022-08-26T13:12:18.681Z,0.28
2022-08-26T13:14:46.189Z,0.73
2022-08-26T13:17:13.345Z,0.00
2022-08-26T13:19:40.583Z,0.93
2022-08-26T13:22:07.716Z,1.52
2022-08-26T13:24:36.414Z,1.08
2022-08-26T13:27:03.834Z,0.47
2022-08-26T13:29:38.265Z,0.75
2022-08-26T13:32:06.265Z,0.38
2022-08-26T13:34:34.125Z,0.90
2022-08-26T13:37:01.252Z,0.88
2022-08-26T13:39:28.381Z,0.25
2022-08-26T13:41:55.518Z,0.13
2022-08-26T13:44:22.670Z,0.75
2022-08-26T13:46:49.797Z,1.08
2022-08-26T13:49:16.998Z,0.50
2022-08-26T13:51:44.126Z,0.68
2022-08-26T13:54:11.254Z,0.57
2022-08-26T13:56:38.402Z,1.98
2022-08-26T13:59:05.755Z,0.50
2022-08-26T14:01:34.154Z,0.25
2022-08-26T14:04:02.501Z,1.08
2022-08-26T14:06:29.919Z,0.85
2022-08-26T14:08:57.179Z,2.00
2022-08-26T14:11:24.849Z,0.95
2022-08-26T14:13:52.265Z,0.82
2022-08-26T14:16:25.047Z,1.23
2022-08-26T14:18:52.299Z,0.15
2022-08-26T14:21:19.454Z,0.77
2022-08-26T14:23:46.751Z,0.03
2022-08-26T14:26:28.281Z,0.57
2022-08-26T14:29:02.604Z,1.08
2022-08-26T14:31:55.534Z,0.93
2022-08-26T14:34:23.065Z,1.25
2022-08-26T14:36:50.218Z,0.20
2022-08-26T14:39:17.996Z,1.55
2022-08-26T14:41:53.835Z,0.00
2022-08-26T14:44:22.423Z,0.88
2022-08-26T14:46:50.309Z,0.90
2022-08-26T14:49:17.924Z,0.77
2022-08-26T14:51:50.774Z,1.00
2022-08-26T14:54:18.285Z,0.77
2022-08-26T14:56:49.366Z,0.55
2022-08-26T14:59:17.870Z,1.02
2022-08-26T15:01:48.888Z,0.63
2022-08-26T15:04:16.121Z,0.63
2022-08-26T15:07:18.719Z,0.60
2022-08-26T15:09:45.874Z,0.50
2022-08-26T15:12:13.070Z,0.15
2022-08-26T15:14:40.310Z,0.32
2022-08-26T15:17:07.474Z,0.40
2022-08-26T15:19:34.631Z,1.55
2022-08-26T15:22:01.763Z,1.48
2022-08-26T15:24:29.347Z,0.22
2022-08-26T15:26:56.557Z,1.25
2022-08-26T15:29:35.367Z,0.57
2022-08-26T15:32:03.725Z,0.30
2022-08-26T15:34:31.953Z,0.32
2022-08-26T15:36:59.108Z,0.30
2022-08-26T15:39:26.245Z,0.85
2022-08-26T15:41:55.913Z,0.63
2022-08-26T15:44:23.130Z,0.63
2022-08-26T15:46:52.514Z,0.52
2022-08-26T15:49:22.550Z,0.43
2022-08-26T15:51:52.658Z,1.23
2022-08-26T15:54:21.078Z,0.93
2022-08-26T15:56:48.993Z,0.25
2022-08-26T15:59:16.299Z,1.45
2022-08-26T16:01:43.528Z,0.25
2022-08-26T16:04:11.341Z,0.95
2022-08-26T16:06:39.458Z,0.35
2022-08-26T16:09:06.736Z,0.10
2022-08-26T16:11:34.211Z,0.52
2022-08-26T16:14:01.445Z,0.85
2022-08-26T16:16:28.631Z,0.65
2022-08-26T16:18:55.839Z,0.28
2022-08-26T16:21:24.371Z,0.70
2022-08-26T16:23:51.737Z,0.55
2022-08-26T16:26:19.822Z,0.57
2022-08-26T16:28:47.346Z,0.35
2022-08-26T16:31:14.749Z,0.30
2022-08-26T16:33:41.962Z,0.20
2022-08-26T16:36:09.295Z,0.08
2022-08-26T16:38:37.498Z,0.22
2022-08-26T16:41:04.663Z,0.60
2022-08-26T16:43:34.526Z,0.60
2022-08-26T16:46:01.704Z,0.32
2022-08-26T16:48:29.072Z,0.82
2022-08-26T16:50:56.253Z,0.68
2022-08-26T16:53:24.262Z,0.47
2022-08-26T16:55:51.489Z,0.80
2022-08-26T16:58:18.742Z,0.47
2022-08-26T17:00:49.028Z,0.32
2022-08-26T17:03:16.694Z,0.28
2022-08-26T17:05:44.373Z,0.08
2022-08-26T17:08:11.995Z,0.20
2022-08-26T17:10:39.551Z,0.73
2022-08-26T17:13:06.729Z,0.05
2022-08-26T17:15:33.976Z,1.23
2022-08-26T17:18:01.134Z,0.65
2022-08-26T17:20:28.395Z,0.93
2022-08-26T17:22:55.709Z,0.25
2022-08-26T17:25:25.123Z,0.52
2022-08-26T17:27:52.329Z,0.97
2022-08-26T17:30:19.954Z,1.98
2022-08-26T17:32:54.466Z,0.40
2022-08-26T17:35:21.679Z,0.73
2022-08-26T17:37:48.865Z,0.65
2022-08-26T17:40:17.268Z,1.33
2022-08-26T17:42:44.498Z,0.70
2022-08-26T17:45:11.899Z,0.30
2022-08-26T17:47:39.215Z,0.10
2022-08-26T17:50:06.949Z,1.30
2022-08-26T17:52:34.094Z,0.40
2022-08-26T17:55:01.320Z,0.73
2022-08-26T17:57:29.073Z,1.08
2022-08-26T17:59:56.765Z,0.52
2022-08-26T18:02:24.268Z,0.75
2022-08-26T18:04:51.439Z,1.85
2022-08-26T18:07:18.613Z,1.10
2022-08-26T18:09:45.786Z,0.98
2022-08-26T18:12:12.948Z,1.20
2022-08-26T18:14:40.109Z,1.50
2022-08-26T18:17:07.760Z,0.35
2022-08-26T18:19:35.169Z,0.52
2022-08-26T18:22:02.373Z,1.50
2022-08-26T18:24:32.066Z,1.48
2022-08-26T18:26:59.206Z,0.20
2022-08-26T18:29:27.832Z,0.28
2022-08-26T18:31:54.982Z,0.90
2022-08-26T18:34:22.285Z,1.40
2022-08-26T18:36:52.165Z,1.00
2022-08-26T18:39:23.666Z,0.68
2022-08-26T18:41:52.312Z,0.88
2022-08-26T18:44:20.149Z,0.55
2022-08-26T18:46:47.414Z,0.60
2022-08-26T18:49:15.300Z,2.33
2022-08-26T18:51:42.731Z,1.02
2022-08-26T18:54:09.942Z,0.63
2022-08-26T18:56:37.563Z,0.57
2022-08-26T18:59:05.180Z,0.93
2022-08-26T19:01:32.623Z,1.73
2022-08-26T19:04:00.132Z,0.50
2022-08-26T19:06:28.161Z,0.43
2022-08-26T19:08:55.687Z,1.10
2022-08-26T19:11:32.239Z,0.57
2022-08-26T19:14:00.213Z,0.65
2022-08-26T19:16:27.654Z,1.42
2022-08-26T19:18:54.896Z,0.88
2022-08-26T19:21:22.129Z,0.40
2022-08-26T19:23:49.548Z,0.15
2022-08-26T19:26:16.712Z,0.30
2022-08-26T19:28:43.866Z,0.65
2022-08-26T19:31:11.515Z,1.23
2022-08-26T19:33:39.433Z,0.88
2022-08-26T19:36:09.479Z,1.27
2022-08-26T19:38:39.351Z,0.55
2022-08-26T19:41:06.611Z,1.20
2022-08-26T19:43:33.774Z,0.80
2022-08-26T19:46:01.487Z,0.45
2022-08-26T19:48:29.086Z,1.58
2022-08-26T19:50:56.221Z,1.10
2022-08-26T19:53:23.760Z,1.40
2022-08-26T19:55:51.421Z,0.73
2022-08-26T19:58:18.574Z,0.50
2022-08-26T20:00:45.789Z,0.15
2022-08-26T20:03:15.982Z,1.15
2022-08-26T20:05:43.488Z,0.63
2022-08-26T20:08:16.748Z,0.50
2022-08-26T20:10:50.864Z,0.47
2022-08-26T20:13:18.394Z,0.70
2022-08-26T20:15:45.605Z,0.75
2022-08-26T20:18:33.034Z,0.25
2022-08-26T20:21:18.888Z,1.02
2022-08-26T20:23:46.071Z,0.32
2022-08-26T20:26:13.230Z,0.60
2022-08-26T20:28:40.380Z,0.25
2022-08-26T20:31:07.563Z,1.27
2022-08-26T20:33:46.144Z,1.02
2022-08-26T20:36:13.958Z,0.70
2022-08-26T20:38:41.193Z,0.88
2022-08-26T20:41:08.368Z,1.27
2022-08-26T20:43:35.541Z,0.52
2022-08-26T20:46:02.770Z,1.63
2022-08-26T20:48:35.442Z,0.57
2022-08-26T20:51:02.618Z,1.13
2022-08-26T20:53:29.784Z,1.08
2022-08-26T20:56:00.837Z,0.57
2022-08-26T20:58:28.093Z,0.98
2022-08-26T21:00:55.305Z,0.13
2022-08-26T21:03:22.964Z,0.65
2022-08-26T21:05:50.148Z,0.52
2022-08-26T21:08:17.512Z,0.28
2022-08-26T21:10:45.438Z,0.30
2022-08-26T21:13:13.130Z,0.57
2022-08-26T21:15:40.314Z,0.00
2022-08-26T21:18:07.989Z,0.55
2022-08-26T21:20:35.206Z,1.38
2022-08-26T21:23:02.370Z,0.05
2022-08-26T21:25:29.511Z,0.30
2022-08-26T21:27:56.763Z,0.47
2022-08-26T21:30:23.906Z,0.43
2022-08-26T21:32:51.124Z,0.77
2022-08-26T21:35:18.361Z,0.30
2022-08-26T21:37:45.551Z,0.13
2022-08-26T21:40:12.912Z,0.30
2022-08-26T21:42:40.163Z,0.28
2022-08-26T21:45:07.541Z,0.35
2022-08-26T21:47:34.724Z,0.15
2022-08-26T21:50:02.258Z,0.43
2022-08-26T21:52:29.422Z,0.15
2022-08-26T21:54:57.350Z,0.73
2022-08-26T21:57:24.554Z,0.35
2022-08-26T21:59:52.458Z,0.50
2022-08-26T22:02:19.944Z,0.00
2022-08-26T22:04:48.933Z,0.10
2022-08-26T22:07:17.298Z,0.52
2022-08-26T22:09:44.771Z,0.73
2022-08-26T22:12:12.295Z,0.80
2022-08-26T22:14:39.729Z,0.45
2022-08-26T22:17:07.149Z,0.68
2022-08-26T22:19:34.517Z,0.13
2022-08-26T22:22:13.376Z,0.57
2022-08-26T22:24:40.527Z,0.10
2022-08-26T22:27:07.670Z,0.10
2022-08-26T22:29:34.881Z,0.50
2022-08-26T22:32:02.434Z,0.30
2022-08-26T22:34:29.774Z,0.03
2022-08-26T22:36:56.986Z,0.73
2022-08-26T22:39:24.763Z,0.47
2022-08-26T22:41:52.377Z,1.23
2022-08-26T22:44:20.365Z,0.10
2022-08-26T22:46:47.570Z,0.90
2022-08-26T22:49:16.334Z,0.05
2022-08-26T22:51:44.225Z,0.77
2022-08-26T22:54:11.443Z,0.98
2022-08-26T22:56:38.711Z,0.50
2022-08-26T22:59:07.695Z,0.85
2022-08-26T23:01:36.165Z,0.75
2022-08-26T23:04:03.682Z,0.00
2022-08-26T23:06:30.986Z,0.08
2022-08-26T23:08:58.163Z,0.22
2022-08-26T23:11:25.758Z,1.45
2022-08-26T23:13:52.920Z,0.25
2022-08-26T23:16:21.066Z,0.38
2022-08-26T23:18:48.248Z,0.43
2022-08-26T23:21:16.019Z,0.30
2022-08-26T23:23:44.247Z,0.35
2022-08-26T23:26:15.457Z,0.22
2022-08-26T23:28:44.618Z,0.47
2022-08-26T23:31:11.813Z,0.10
2022-08-26T23:33:57.774Z,0.50
2022-08-26T23:36:25.518Z,0.10
2022-08-26T23:38:53.321Z,0.30
2022-08-26T23:41:21.884Z,0.35
2022-08-26T23:43:49.049Z,0.10
2022-08-26T23:46:16.269Z,0.17
2022-08-26T23:48:43.421Z,0.30
2022-08-26T23:51:29.846Z,0.20
2022-08-26T23:53:57.817Z,0.30
2022-08-26T23:56:24.994Z,0.17
2022-08-26T23:58:54.003Z,0.00
